Anchorage, AK (99514)

5:05 AM AKDT on March 30, 2017 (GMT -0800)
Government Hill | | Change Station

Elev 94 ft 61.23 °N, 149.89 °W | Updated 7 minutes ago

Overcast
Overcast
27.3 °F
Feels Like 27 °F
N
0.0
Wind Variable Wind from North
Gusts 0.0 mph

Today
High -- | Low -- °F
--% Chance of Precip.
Yesterday
High -- | Low -- °F
Precip. -- in
Pressure 29.70 in
Visibility 10.0 miles
Clouds Few 1400 ft
Mostly Cloudy 2200 ft
Overcast 3500 ft
Windchill 27 °F
Dew Point 25 °F
Humidity 89%
Rainfall 0.00 in
Snow Depth Not available.
7:27 AM 8:41 PM
Waxing Crescent, 8% visible
METAR PAMR 301253Z 00000KT 10SM FEW014 BKN022 OVC035 M04/M04 A2970 RMK AO2 SLP058 T10441044 $
Pressure 29.70 in
Visibility 10.0 miles
Clouds Few 1400 ft
Mostly Cloudy 2200 ft
Overcast 3500 ft
Windchill 27 °F
Dew Point 25 °F
Humidity 89%
Rainfall 0.00 in
Snow Depth Not available.
7:27 AM 8:41 PM
Waxing Crescent, 8% visible
METAR PAMR 301253Z 00000KT 10SM FEW014 BKN022 OVC035 M04/M04 A2970 RMK AO2 SLP058 T10441044 $

Get Severe Weather Alerts

Thanks for signing up!

Be on the lookout for a verification email in your inbox.

You'll start receiving the daily forecast at 8 AM.

×

10-Day Weather Forecast

Almanac

Astronomy

Mar. 30, 2017 Rise Set
Actual Time
Civil Twilight
Nautical Twilight
Astronomical Twilight
Moon
Length of Visible Light
Length of Day
Tomorrow will be .
, % of the Moon is Illuminated

Today's Extremes

State Highs State Lows

Community

WunderPhotos

Upload Photos

1,962,540 photos uploaded!

WunderBlog® & News

Nearby

Air Quality

  Air Quality AQ Index Pollutant
Not available.

Snow Depth

Station Depth Elevation

Earthquake Activity

City Distance Mag. Time & Date
Minimum magnitude displayed is 2.5.

Earthquake Activity

City Distance Mag. Time & Date
Minimum magnitude displayed is 2.5.

Coastal Water Temperatures

Place Temperature

Stations

Nearby Weather Stations

Station Location Temp. Windchill Dew Point Humidity Wind Precip. Elev Updated Type
                   

Watches & Warnings

There are currently no watches in effect.